SYRK1: Arkansas R at Syracuse, KS

                                SHEF ID:       SYRK1     ARKANSAS R AT SYRACUSE, KS
STATION TYPE:
Regulating: Stage = 10.00, Flow = 2000

PRECIP STAGE RIV-FLOW BAT-LOAD
in ft cfs volt
Ccp-Rev Ccp-Rev Ccp-Rev Ccp-Rev
(America/Chicago)
07/21 00:00 0.00 5.70 302 12.65
07/21 01:00 0.00 5.71 304 12.65
07/21 02:00 0.00 5.68 298 12.65
07/21 03:00 0.00 5.72 306 12.60
07/21 04:00 0.00 5.82 325 12.60
07/21 05:00 0.00 5.72 306 12.54
07/21 06:00 0.00 5.73 308 12.54
07/21 07:00 0.00 5.67 296 12.54
07/21 08:00 0.00 5.70 302 12.54
07/21 09:00 0.00 5.69 300 12.65
07/21 10:00 0.00 5.68 298 13.07
07/21 11:00 0.00 5.68 298 13.30
07/21 12:00 0.00 5.71 304 13.36
07/21 13:00 0.00 5.71 304 13.36
07/21 14:00 0.00 5.69 300 13.36
07/21 15:00 0.00 5.69 300 13.42
07/21 16:00 0.00 5.70 302 13.18
07/21 17:00 0.00 5.70 302 13.24
07/21 18:00 0.00 5.71 304 13.18
07/21 19:00 0.00 5.71 304 13.07
07/21 20:00 0.00 5.71 304 13.00
07/21 21:00 0.00 5.69 300 12.71
07/21 22:00 0.00 5.70 302 12.71
07/21 23:00 ---- ---- ---- ----
Data processed at Mon 22Jul2024 04:28 GMT

Parsing this webpage?

Checkout our new Data API! CWMSDataAPI (CDA)

Timeseries IDs (TSIDs)

TSIDs used from left to right in the data table
SYRA.Precip-Inc.Total.1Hour.1Hour.Ccp-Rev
SYRA.Stage.Inst.1Hour.0.Ccp-Rev
SYRA.Flow.Inst.1Hour.0.Ccp-Rev
SYRA.Volt-Battery Load.Inst.1Hour.0.Ccp-Rev

                            

All information presented herein is the property of the government of the United States of America and may be revised or deleted at any time without prior notice. Dissemination of this information without the expressed written consent of the Public Affairs Office, Tulsa District U.S. Army Corps of Engineers is strictly prohibited. These data are gathered electronically and, as presented, have NOT undergone any form of quality control. These data are NOT guaranteed to be valid or correct.